sensor_id;sensor_type;location;lat;lon;timestamp;pressure;altitude;pressure_sealevel;temperature;humidity
6464;BME280;3265;42.694;23.282;2022-07-23T00:00:18;94984.28;;;22.20;61.75
6464;BME280;3265;42.694;23.282;2022-07-23T00:02:45;94999.13;;;22.21;61.69
6464;BME280;3265;42.694;23.282;2022-07-23T00:05:13;94985.00;;;22.02;62.48
6464;BME280;3265;42.694;23.282;2022-07-23T00:07:40;95004.84;;;22.04;61.91
6464;BME280;3265;42.694;23.282;2022-07-23T00:10:08;94977.22;;;21.82;62.62
6464;BME280;3265;42.694;23.282;2022-07-23T00:12:35;95006.28;;;21.92;63.92
6464;BME280;3265;42.694;23.282;2022-07-23T00:15:03;94986.81;;;21.78;63.75
6464;BME280;3265;42.694;23.282;2022-07-23T00:17:31;94955.03;;;21.54;62.91
6464;BME280;3265;42.694;23.282;2022-07-23T00:19:58;94978.97;;;21.68;62.26
6464;BME280;3265;42.694;23.282;2022-07-23T00:22:27;95009.78;;;21.87;62.98
6464;BME280;3265;42.694;23.282;2022-07-23T00:24:55;95012.31;;;21.69;63.09
6464;BME280;3265;42.694;23.282;2022-07-23T00:27:22;94988.38;;;21.50;63.62
6464;BME280;3265;42.694;23.282;2022-07-23T00:29:49;94981.78;;;21.47;64.01
6464;BME280;3265;42.694;23.282;2022-07-23T00:32:16;95011.81;;;21.62;64.17
6464;BME280;3265;42.694;23.282;2022-07-23T00:34:42;95011.06;;;21.56;64.17
6464;BME280;3265;42.694;23.282;2022-07-23T00:37:11;94990.88;;;21.36;64.80
6464;BME280;3265;42.694;23.282;2022-07-23T00:39:39;95011.38;;;21.55;64.74
6464;BME280;3265;42.694;23.282;2022-07-23T00:42:06;95011.88;;;21.57;64.96
6464;BME280;3265;42.694;23.282;2022-07-23T00:44:33;94999.50;;;21.52;65.01
6464;BME280;3265;42.694;23.282;2022-07-23T00:46:59;95008.41;;;21.61;64.64
6464;BME280;3265;42.694;23.282;2022-07-23T00:49:28;95005.47;;;21.63;64.64
6464;BME280;3265;42.694;23.282;2022-07-23T00:51:56;95003.25;;;21.46;65.03
6464;BME280;3265;42.694;23.282;2022-07-23T00:54:25;95011.38;;;21.55;65.19
6464;BME280;3265;42.694;23.282;2022-07-23T00:56:54;95013.47;;;21.58;64.77
6464;BME280;3265;42.694;23.282;2022-07-23T00:59:21;95002.19;;;21.42;64.96
6464;BME280;3265;42.694;23.282;2022-07-23T01:01:47;95000.09;;;21.39;64.95
6464;BME280;3265;42.694;23.282;2022-07-23T01:04:15;95014.91;;;21.40;64.16
6464;BME280;3265;42.694;23.282;2022-07-23T01:06:43;95008.94;;;21.29;64.94
6464;BME280;3265;42.694;23.282;2022-07-23T01:09:10;95009.69;;;21.35;65.14
6464;BME280;3265;42.694;23.282;2022-07-23T01:11:37;95013.88;;;21.41;64.60
6464;BME280;3265;42.694;23.282;2022-07-23T01:14:15;95007.03;;;21.30;64.17
6464;BME280;3265;42.694;23.282;2022-07-23T01:16:44;95008.94;;;21.24;64.17
6464;BME280;3265;42.694;23.282;2022-07-23T01:19:11;95002.09;;;21.18;64.57
6464;BME280;3265;42.694;23.282;2022-07-23T01:21:40;95000.34;;;21.04;65.41
6464;BME280;3265;42.694;23.282;2022-07-23T01:24:10;94963.47;;;20.83;65.95
6464;BME280;3265;42.694;23.282;2022-07-23T01:26:38;95006.69;;;21.08;66.02
6464;BME280;3265;42.694;23.282;2022-07-23T01:29:05;95005.66;;;20.99;67.61
6464;BME280;3265;42.694;23.282;2022-07-23T01:31:32;94990.88;;;20.92;67.53
6464;BME280;3265;42.694;23.282;2022-07-23T01:33:59;94982.72;;;20.89;68.07
6464;BME280;3265;42.694;23.282;2022-07-23T01:36:26;94976.38;;;20.90;67.47
6464;BME280;3265;42.694;23.282;2022-07-23T01:38:53;95001.09;;;21.14;66.86
6464;BME280;3265;42.694;23.282;2022-07-23T01:41:21;95006.63;;;21.18;66.81
6464;BME280;3265;42.694;23.282;2022-07-23T01:43:48;94956.53;;;20.92;66.99
6464;BME280;3265;42.694;23.282;2022-07-23T01:46:15;95005.00;;;21.22;66.53
6464;BME280;3265;42.694;23.282;2022-07-23T01:48:42;94980.75;;;21.15;66.43
6464;BME280;3265;42.694;23.282;2022-07-23T01:51:09;94992.31;;;21.19;66.10
6464;BME280;3265;42.694;23.282;2022-07-23T01:53:35;94977.88;;;21.01;65.68
6464;BME280;3265;42.694;23.282;2022-07-23T01:56:03;95000.25;;;21.19;65.98
6464;BME280;3265;42.694;23.282;2022-07-23T01:58:31;94972.13;;;20.94;65.66
6464;BME280;3265;42.694;23.282;2022-07-23T02:00:58;95003.22;;;21.12;65.98
6464;BME280;3265;42.694;23.282;2022-07-23T02:03:26;94971.38;;;20.88;66.70
6464;BME280;3265;42.694;23.282;2022-07-23T02:05:53;94985.06;;;20.95;67.02
6464;BME280;3265;42.694;23.282;2022-07-23T02:08:19;94968.44;;;20.90;66.90
6464;BME280;3265;42.694;23.282;2022-07-23T02:10:46;94994.78;;;21.05;66.76
6464;BME280;3265;42.694;23.282;2022-07-23T02:13:14;94988.22;;;20.98;66.42
6464;BME280;3265;42.694;23.282;2022-07-23T02:15:42;95004.28;;;21.11;66.56
6464;BME280;3265;42.694;23.282;2022-07-23T02:18:09;94989.81;;;20.93;66.96
6464;BME280;3265;42.694;23.282;2022-07-23T02:20:36;95006.16;;;21.06;67.00
6464;BME280;3265;42.694;23.282;2022-07-23T02:23:04;94996.44;;;20.91;67.25
6464;BME280;3265;42.694;23.282;2022-07-23T02:25:32;94998.84;;;20.87;67.36
6464;BME280;3265;42.694;23.282;2022-07-23T02:27:59;94982.78;;;20.79;67.61
6464;BME280;3265;42.694;23.282;2022-07-23T02:30:26;94983.88;;;20.73;68.00
6464;BME280;3265;42.694;23.282;2022-07-23T02:32:54;94999.59;;;20.93;68.16
6464;BME280;3265;42.694;23.282;2022-07-23T02:35:21;94983.28;;;20.86;67.60
6464;BME280;3265;42.694;23.282;2022-07-23T02:37:48;94979.59;;;20.82;67.77
6464;BME280;3265;42.694;23.282;2022-07-23T02:40:15;94974.38;;;20.72;67.94
6464;BME280;3265;42.694;23.282;2022-07-23T02:42:42;94994.91;;;20.85;68.14
6464;BME280;3265;42.694;23.282;2022-07-23T02:45:09;94984.38;;;20.80;68.00
6464;BME280;3265;42.694;23.282;2022-07-23T02:47:36;94976.19;;;20.76;68.14
6464;BME280;3265;42.694;23.282;2022-07-23T02:50:05;95011.00;;;20.88;68.66
6464;BME280;3265;42.694;23.282;2022-07-23T02:52:32;95008.63;;;20.92;68.48
6464;BME280;3265;42.694;23.282;2022-07-23T02:54:59;95012.84;;;20.88;68.43
6464;BME280;3265;42.694;23.282;2022-07-23T02:57:26;94993.88;;;20.76;68.38
6464;BME280;3265;42.694;23.282;2022-07-23T02:59:53;95002.31;;;20.78;68.32
6464;BME280;3265;42.694;23.282;2022-07-23T03:02:20;95020.78;;;20.88;68.51
6464;BME280;3265;42.694;23.282;2022-07-23T03:04:46;95006.84;;;20.72;68.34
6464;BME280;3265;42.694;23.282;2022-07-23T03:07:15;95012.13;;;20.72;68.63
6464;BME280;3265;42.694;23.282;2022-07-23T03:09:42;95031.16;;;20.74;68.94
6464;BME280;3265;42.694;23.282;2022-07-23T03:12:09;94999.28;;;20.56;68.51
6464;BME280;3265;42.694;23.282;2022-07-23T03:14:36;95036.44;;;20.69;68.91
6464;BME280;3265;42.694;23.282;2022-07-23T03:17:03;95007.75;;;20.53;68.47
6464;BME280;3265;42.694;23.282;2022-07-23T03:19:30;95014.03;;;20.62;67.93
6464;BME280;3265;42.694;23.282;2022-07-23T03:21:57;95007.22;;;20.51;67.47
6464;BME280;3265;42.694;23.282;2022-07-23T03:24:25;95024.91;;;20.50;67.35
6464;BME280;3265;42.694;23.282;2022-07-23T03:27:13;95021.53;;;20.40;67.91
6464;BME280;3265;42.694;23.282;2022-07-23T03:29:40;95054.78;;;20.51;68.04
6464;BME280;3265;42.694;23.282;2022-07-23T03:32:07;94969.38;;;19.96;68.36
6464;BME280;3265;42.694;23.282;2022-07-23T03:34:34;95036.34;;;20.30;69.21
6464;BME280;3265;42.694;23.282;2022-07-23T03:37:01;95044.00;;;20.37;69.17
6464;BME280;3265;42.694;23.282;2022-07-23T03:39:29;95042.94;;;20.33;69.33
6464;BME280;3265;42.694;23.282;2022-07-23T03:41:56;95043.47;;;20.30;69.68
6464;BME280;3265;42.694;23.282;2022-07-23T03:44:23;95055.63;;;20.31;69.99
6464;BME280;3265;42.694;23.282;2022-07-23T03:46:50;95057.44;;;20.35;69.64
6464;BME280;3265;42.694;23.282;2022-07-23T03:49:17;95050.03;;;20.37;70.02
6464;BME280;3265;42.694;23.282;2022-07-23T03:51:43;95032.66;;;20.31;69.94
6464;BME280;3265;42.694;23.282;2022-07-23T03:54:10;95036.06;;;20.42;69.27
6464;BME280;3265;42.694;23.282;2022-07-23T03:56:38;95042.63;;;20.45;69.47
6464;BME280;3265;42.694;23.282;2022-07-23T03:59:05;95054.72;;;20.61;68.82
6464;BME280;3265;42.694;23.282;2022-07-23T04:01:32;95051.03;;;20.62;67.61
6464;BME280;3265;42.694;23.282;2022-07-23T04:03:59;95056.59;;;20.60;68.15
6464;BME280;3265;42.694;23.282;2022-07-23T04:06:26;95042.06;;;20.53;68.70
6464;BME280;3265;42.694;23.282;2022-07-23T04:08:53;95030.72;;;20.52;68.54
6464;BME280;3265;42.694;23.282;2022-07-23T04:11:20;95054.44;;;20.67;68.78
6464;BME280;3265;42.694;23.282;2022-07-23T04:13:49;95042.31;;;20.66;68.30
6464;BME280;3265;42.694;23.282;2022-07-23T04:16:16;95027.78;;;20.59;67.99
6464;BME280;3265;42.694;23.282;2022-07-23T04:18:44;95025.16;;;20.59;68.12
6464;BME280;3265;42.694;23.282;2022-07-23T04:21:11;95054.63;;;20.81;68.27
6464;BME280;3265;42.694;23.282;2022-07-23T04:23:37;95021.19;;;20.56;68.37
6464;BME280;3265;42.694;23.282;2022-07-23T04:26:04;95052.81;;;20.76;68.36
6464;BME280;3265;42.694;23.282;2022-07-23T04:28:31;95033.31;;;20.62;68.74
6464;BME280;3265;42.694;23.282;2022-07-23T04:30:59;95064.66;;;20.84;68.30
6464;BME280;3265;42.694;23.282;2022-07-23T04:33:26;95061.75;;;20.85;68.05
6464;BME280;3265;42.694;23.282;2022-07-23T04:35:53;95032.50;;;20.72;67.84
6464;BME280;3265;42.694;23.282;2022-07-23T04:38:20;95049.88;;;20.78;67.19
6464;BME280;3265;42.694;23.282;2022-07-23T04:40:47;95065.75;;;20.83;67.04
6464;BME280;3265;42.694;23.282;2022-07-23T04:43:14;95063.41;;;20.71;67.60
6464;BME280;3265;42.694;23.282;2022-07-23T04:45:41;95040.53;;;20.42;68.52
6464;BME280;3265;42.694;23.282;2022-07-23T04:48:09;95042.91;;;20.38;69.00
6464;BME280;3265;42.694;23.282;2022-07-23T04:50:36;95058.72;;;20.53;69.52
6464;BME280;3265;42.694;23.282;2022-07-23T04:53:03;95041.84;;;20.44;69.73
6464;BME280;3265;42.694;23.282;2022-07-23T04:55:30;95062.91;;;20.64;69.20
6464;BME280;3265;42.694;23.282;2022-07-23T04:57:57;95055.50;;;20.66;69.20
6464;BME280;3265;42.694;23.282;2022-07-23T05:00:24;95074.69;;;20.92;68.51
6464;BME280;3265;42.694;23.282;2022-07-23T05:02:51;95067.56;;;20.87;68.58
6464;BME280;3265;42.694;23.282;2022-07-23T05:05:19;95043.56;;;20.79;68.29
6464;BME280;3265;42.694;23.282;2022-07-23T05:07:46;95073.84;;;20.97;68.18
6464;BME280;3265;42.694;23.282;2022-07-23T05:10:13;95062.75;;;21.00;68.22
6464;BME280;3265;42.694;23.282;2022-07-23T05:12:39;95072.22;;;21.11;68.12
6464;BME280;3265;42.694;23.282;2022-07-23T05:15:07;95056.88;;;21.13;68.09
6464;BME280;3265;42.694;23.282;2022-07-23T05:17:35;95071.84;;;21.32;66.98
6464;BME280;3265;42.694;23.282;2022-07-23T05:20:01;95057.28;;;21.30;66.21
6464;BME280;3265;42.694;23.282;2022-07-23T05:22:30;95050.75;;;21.22;65.90
6464;BME280;3265;42.694;23.282;2022-07-23T05:24:57;95078.91;;;21.47;66.50
6464;BME280;3265;42.694;23.282;2022-07-23T05:27:24;95074.56;;;21.56;66.59
6464;BME280;3265;42.694;23.282;2022-07-23T05:29:51;95028.50;;;21.28;66.29
6464;BME280;3265;42.694;23.282;2022-07-23T05:32:18;95059.44;;;21.62;65.53
6464;BME280;3265;42.694;23.282;2022-07-23T05:34:44;95073.88;;;21.79;65.22
6464;BME280;3265;42.694;23.282;2022-07-23T05:37:11;95045.66;;;21.65;65.00
6464;BME280;3265;42.694;23.282;2022-07-23T05:39:40;95065.72;;;21.71;64.74
6464;BME280;3265;42.694;23.282;2022-07-23T05:42:06;95082.03;;;21.88;64.68
6464;BME280;3265;42.694;23.282;2022-07-23T05:44:34;95080.41;;;21.92;64.46
6464;BME280;3265;42.694;23.282;2022-07-23T05:47:00;95039.47;;;21.79;63.51
6464;BME280;3265;42.694;23.282;2022-07-23T05:49:27;95079.75;;;22.05;63.55
6464;BME280;3265;42.694;23.282;2022-07-23T05:51:54;95063.38;;;22.03;63.67
6464;BME280;3265;42.694;23.282;2022-07-23T05:54:21;95050.38;;;22.07;61.97
6464;BME280;3265;42.694;23.282;2022-07-23T05:56:49;95069.81;;;22.21;61.69
6464;BME280;3265;42.694;23.282;2022-07-23T05:59:17;95073.44;;;22.30;62.19
6464;BME280;3265;42.694;23.282;2022-07-23T06:01:45;95047.09;;;22.15;62.12
6464;BME280;3265;42.694;23.282;2022-07-23T06:04:12;95078.34;;;22.41;61.97
6464;BME280;3265;42.694;23.282;2022-07-23T06:06:39;95048.25;;;22.32;61.13
6464;BME280;3265;42.694;23.282;2022-07-23T06:09:06;95054.78;;;22.40;60.96
6464;BME280;3265;42.694;23.282;2022-07-23T06:11:33;95048.91;;;22.43;60.82
6464;BME280;3265;42.694;23.282;2022-07-23T06:14:01;95045.28;;;22.39;60.53
6464;BME280;3265;42.694;23.282;2022-07-23T06:16:28;95054.56;;;22.60;60.39
6464;BME280;3265;42.694;23.282;2022-07-23T06:18:56;95063.66;;;22.78;59.39
6464;BME280;3265;42.694;23.282;2022-07-23T06:21:23;95064.75;;;22.77;58.93
6464;BME280;3265;42.694;23.282;2022-07-23T06:23:50;95060.38;;;22.86;58.09
6464;BME280;3265;42.694;23.282;2022-07-23T06:26:17;95047.41;;;22.84;57.25
6464;BME280;3265;42.694;23.282;2022-07-23T06:28:44;95046.84;;;22.87;57.86
6464;BME280;3265;42.694;23.282;2022-07-23T06:31:12;95038.31;;;22.90;58.26
6464;BME280;3265;42.694;23.282;2022-07-23T06:33:39;95049.56;;;23.01;57.28
6464;BME280;3265;42.694;23.282;2022-07-23T06:36:06;95064.50;;;23.15;57.01
6464;BME280;3265;42.694;23.282;2022-07-23T06:38:33;95070.81;;;23.20;56.83
6464;BME280;3265;42.694;23.282;2022-07-23T06:41:00;95038.63;;;23.07;56.59
6464;BME280;3265;42.694;23.282;2022-07-23T06:43:41;95053.44;;;23.27;56.12
6464;BME280;3265;42.694;23.282;2022-07-23T06:46:09;95034.66;;;23.24;55.63
6464;BME280;3265;42.694;23.282;2022-07-23T06:48:37;95044.03;;;23.40;55.45
6464;BME280;3265;42.694;23.282;2022-07-23T06:51:05;95055.25;;;23.50;55.40
6464;BME280;3265;42.694;23.282;2022-07-23T06:53:32;95040.34;;;23.54;54.78
6464;BME280;3265;42.694;23.282;2022-07-23T06:55:59;95052.59;;;23.69;54.79
6464;BME280;3265;42.694;23.282;2022-07-23T06:58:26;95030.97;;;23.76;54.85
6464;BME280;3265;42.694;23.282;2022-07-23T07:00:53;95030.47;;;23.73;54.62
6464;BME280;3265;42.694;23.282;2022-07-23T07:03:22;95039.47;;;23.91;54.67
6464;BME280;3265;42.694;23.282;2022-07-23T07:05:50;95038.53;;;24.01;54.77
6464;BME280;3265;42.694;23.282;2022-07-23T07:08:18;95016.59;;;23.95;54.97
6464;BME280;3265;42.694;23.282;2022-07-23T07:10:45;95045.16;;;24.17;54.65
6464;BME280;3265;42.694;23.282;2022-07-23T07:13:13;95034.38;;;24.27;54.23
6464;BME280;3265;42.694;23.282;2022-07-23T07:15:41;95053.66;;;24.46;53.86
6464;BME280;3265;42.694;23.282;2022-07-23T07:18:08;95056.69;;;24.53;54.14
6464;BME280;3265;42.694;23.282;2022-07-23T07:20:35;95019.22;;;24.41;53.82
6464;BME280;3265;42.694;23.282;2022-07-23T07:23:04;95009.75;;;24.49;52.91
6464;BME280;3265;42.694;23.282;2022-07-23T07:25:31;95010.53;;;24.63;51.90
6464;BME280;3265;42.694;23.282;2022-07-23T07:27:58;94996.03;;;24.69;51.80
6464;BME280;3265;42.694;23.282;2022-07-23T07:30:25;95025.38;;;24.91;51.69
6464;BME280;3265;42.694;23.282;2022-07-23T07:32:52;95028.72;;;24.97;51.87
6464;BME280;3265;42.694;23.282;2022-07-23T07:35:19;95024.00;;;25.07;51.78
6464;BME280;3265;42.694;23.282;2022-07-23T07:37:46;95039.00;;;25.25;50.88
6464;BME280;3265;42.694;23.282;2022-07-23T07:40:15;95043.63;;;25.33;51.08
6464;BME280;3265;42.694;23.282;2022-07-23T07:42:45;95018.31;;;25.22;51.13
6464;BME280;3265;42.694;23.282;2022-07-23T07:45:13;95038.97;;;25.53;50.65
6464;BME280;3265;42.694;23.282;2022-07-23T07:47:40;95037.75;;;25.59;51.01
6464;BME280;3265;42.694;23.282;2022-07-23T07:50:08;95047.06;;;25.70;50.31
6464;BME280;3265;42.694;23.282;2022-07-23T07:52:36;95038.16;;;25.74;49.55
6464;BME280;3265;42.694;23.282;2022-07-23T07:55:03;95033.84;;;25.87;48.97
6464;BME280;3265;42.694;23.282;2022-07-23T07:57:31;94997.00;;;25.80;48.61
6464;BME280;3265;42.694;23.282;2022-07-23T07:59:58;94986.19;;;25.77;48.88
6464;BME280;3265;42.694;23.282;2022-07-23T08:02:25;95036.09;;;26.16;48.34
6464;BME280;3265;42.694;23.282;2022-07-23T08:04:52;95038.50;;;26.26;47.80
6464;BME280;3265;42.694;23.282;2022-07-23T08:07:22;95008.69;;;26.24;47.72
6464;BME280;3265;42.694;23.282;2022-07-23T08:09:49;95023.38;;;26.43;48.38
6464;BME280;3265;42.694;23.282;2022-07-23T08:12:17;95017.72;;;26.45;47.87
6464;BME280;3265;42.694;23.282;2022-07-23T08:14:45;94983.63;;;26.33;47.44
6464;BME280;3265;42.694;23.282;2022-07-23T08:17:12;95031.91;;;26.71;46.98
6464;BME280;3265;42.694;23.282;2022-07-23T08:19:39;95014.34;;;26.70;46.91
6464;BME280;3265;42.694;23.282;2022-07-23T08:22:06;94982.78;;;26.55;46.48
6464;BME280;3265;42.694;23.282;2022-07-23T08:24:33;95026.66;;;26.97;45.38
6464;BME280;3265;42.694;23.282;2022-07-23T08:27:00;95023.06;;;27.01;45.46
6464;BME280;3265;42.694;23.282;2022-07-23T08:29:26;95025.28;;;27.08;45.49
6464;BME280;3265;42.694;23.282;2022-07-23T08:31:55;95015.69;;;27.07;45.77
6464;BME280;3265;42.694;23.282;2022-07-23T08:34:22;94983.03;;;27.01;48.61
6464;BME280;3265;42.694;23.282;2022-07-23T08:36:49;95009.72;;;27.19;46.10
6464;BME280;3265;42.694;23.282;2022-07-23T08:39:16;94999.53;;;27.21;46.40
6464;BME280;3265;42.694;23.282;2022-07-23T08:41:43;95017.16;;;27.47;47.03
6464;BME280;3265;42.694;23.282;2022-07-23T08:44:10;94963.41;;;27.23;47.65
6464;BME280;3265;42.694;23.282;2022-07-23T08:46:39;94992.97;;;27.52;47.60
6464;BME280;3265;42.694;23.282;2022-07-23T08:49:08;94993.25;;;27.59;47.48
6464;BME280;3265;42.694;23.282;2022-07-23T08:51:35;95013.06;;;27.76;45.64
6464;BME280;3265;42.694;23.282;2022-07-23T08:54:02;95016.78;;;27.92;44.09
6464;BME280;3265;42.694;23.282;2022-07-23T08:56:29;95001.19;;;28.02;46.37
6464;BME280;3265;42.694;23.282;2022-07-23T08:58:57;95001.19;;;28.11;46.00
6464;BME280;3265;42.694;23.282;2022-07-23T09:01:24;94996.63;;;28.11;45.95
6464;BME280;3265;42.694;23.282;2022-07-23T09:03:53;95004.13;;;28.27;43.76
6464;BME280;3265;42.694;23.282;2022-07-23T09:06:25;95007.09;;;28.63;41.23
6464;BME280;3265;42.694;23.282;2022-07-23T09:08:54;95001.00;;;28.92;41.31
6464;BME280;3265;42.694;23.282;2022-07-23T09:11:23;95002.94;;;29.12;40.06
6464;BME280;3265;42.694;23.282;2022-07-23T09:13:54;95007.06;;;29.30;39.78
6464;BME280;3265;42.694;23.282;2022-07-23T09:16:26;95004.13;;;29.44;40.00
6464;BME280;3265;42.694;23.282;2022-07-23T09:18:54;95004.06;;;29.64;41.00
6464;BME280;3265;42.694;23.282;2022-07-23T09:21:25;95003.81;;;29.78;39.21
6464;BME280;3265;42.694;23.282;2022-07-23T09:23:57;95002.66;;;30.00;38.72
6464;BME280;3265;42.694;23.282;2022-07-23T09:26:28;95015.56;;;30.18;38.31
6464;BME280;3265;42.694;23.282;2022-07-23T09:29:06;94999.81;;;30.29;38.17
6464;BME280;3265;42.694;23.282;2022-07-23T09:31:48;95006.66;;;30.51;37.66
6464;BME280;3265;42.694;23.282;2022-07-23T09:34:18;95008.91;;;30.61;37.32
6464;BME280;3265;42.694;23.282;2022-07-23T09:36:47;95009.38;;;30.75;36.61
6464;BME280;3265;42.694;23.282;2022-07-23T09:39:16;95001.19;;;30.83;35.23
6464;BME280;3265;42.694;23.282;2022-07-23T09:41:48;95000.53;;;30.99;35.10
6464;BME280;3265;42.694;23.282;2022-07-23T09:44:16;94978.38;;;31.02;34.48
6464;BME280;3265;42.694;23.282;2022-07-23T09:46:45;94991.88;;;31.17;34.14
6464;BME280;3265;42.694;23.282;2022-07-23T09:49:14;94993.31;;;31.27;35.16
6464;BME280;3265;42.694;23.282;2022-07-23T09:51:52;94981.41;;;31.40;35.44
6464;BME280;3265;42.694;23.282;2022-07-23T09:54:32;94991.44;;;31.55;35.45
6464;BME280;3265;42.694;23.282;2022-07-23T09:57:09;94986.28;;;31.78;34.22
6464;BME280;3265;42.694;23.282;2022-07-23T09:59:40;94978.28;;;31.93;33.30
6464;BME280;3265;42.694;23.282;2022-07-23T10:02:12;94985.53;;;32.05;33.59
6464;BME280;3265;42.694;23.282;2022-07-23T10:04:40;94976.50;;;32.13;33.00
6464;BME280;3265;42.694;23.282;2022-07-23T10:07:09;94973.97;;;32.36;32.57
6464;BME280;3265;42.694;23.282;2022-07-23T10:09:38;94973.56;;;32.49;33.48
6464;BME280;3265;42.694;23.282;2022-07-23T10:12:12;94980.59;;;32.70;31.30
6464;BME280;3265;42.694;23.282;2022-07-23T10:14:53;94970.84;;;32.81;31.63
6464;BME280;3265;42.694;23.282;2022-07-23T10:17:19;94970.16;;;33.03;31.18
6464;BME280;3265;42.694;23.282;2022-07-23T10:19:46;94964.28;;;33.13;31.49
6464;BME280;3265;42.694;23.282;2022-07-23T10:22:20;94969.97;;;33.27;30.90
6464;BME280;3265;42.694;23.282;2022-07-23T10:24:59;94964.34;;;33.36;30.66
6464;BME280;3265;42.694;23.282;2022-07-23T10:27:45;94974.72;;;33.53;29.38
6464;BME280;3265;42.694;23.282;2022-07-23T10:30:20;94969.69;;;33.71;30.40
6464;BME280;3265;42.694;23.282;2022-07-23T10:32:59;94963.63;;;33.77;28.55
6464;BME280;3265;42.694;23.282;2022-07-23T10:35:37;94952.72;;;33.70;29.76
6464;BME280;3265;42.694;23.282;2022-07-23T10:38:13;94961.72;;;33.78;28.94
6464;BME280;3265;42.694;23.282;2022-07-23T10:40:53;94962.03;;;33.95;28.13
6464;BME280;3265;42.694;23.282;2022-07-23T10:43:21;94953.66;;;34.00;26.91
6464;BME280;3265;42.694;23.282;2022-07-23T10:45:49;94958.91;;;34.12;27.05
6464;BME280;3265;42.694;23.282;2022-07-23T10:48:20;94957.75;;;34.36;26.50
6464;BME280;3265;42.694;23.282;2022-07-23T10:51:09;94949.16;;;34.53;24.63
6464;BME280;3265;42.694;23.282;2022-07-23T10:53:56;94955.59;;;34.68;25.47
6464;BME280;3265;42.694;23.282;2022-07-23T10:56:51;94943.53;;;34.88;25.04
6464;BME280;3265;42.694;23.282;2022-07-23T10:59:31;94945.53;;;35.21;24.42
6464;BME280;3265;42.694;23.282;2022-07-23T11:02:22;94939.97;;;35.40;24.67
6464;BME280;3265;42.694;23.282;2022-07-23T11:04:52;94935.06;;;35.49;23.02
6464;BME280;3265;42.694;23.282;2022-07-23T11:07:19;94940.13;;;35.54;23.30
6464;BME280;3265;42.694;23.282;2022-07-23T11:09:47;94941.94;;;35.73;21.53
6464;BME280;3265;42.694;23.282;2022-07-23T11:12:35;94944.53;;;36.03;21.18
6464;BME280;3265;42.694;23.282;2022-07-23T11:15:05;94931.38;;;36.01;19.33
6464;BME280;3265;42.694;23.282;2022-07-23T11:17:34;94935.63;;;36.02;19.04
6464;BME280;3265;42.694;23.282;2022-07-23T11:20:16;94925.69;;;36.10;20.50
6464;BME280;3265;42.694;23.282;2022-07-23T11:22:51;94922.41;;;36.37;20.06
6464;BME280;3265;42.694;23.282;2022-07-23T11:25:33;94917.06;;;36.45;19.78
6464;BME280;3265;42.694;23.282;2022-07-23T11:28:18;94916.00;;;36.56;20.67
6464;BME280;3265;42.694;23.282;2022-07-23T11:30:52;94923.88;;;36.75;18.22
6464;BME280;3265;42.694;23.282;2022-07-23T11:33:21;94921.88;;;36.65;17.90
6464;BME280;3265;42.694;23.282;2022-07-23T11:36:01;94916.50;;;36.72;17.91
6464;BME280;3265;42.694;23.282;2022-07-23T11:38:31;94911.97;;;36.94;18.57
6464;BME280;3265;42.694;23.282;2022-07-23T11:41:00;94915.09;;;36.96;19.45
6464;BME280;3265;42.694;23.282;2022-07-23T11:43:28;94906.72;;;37.22;18.36
6464;BME280;3265;42.694;23.282;2022-07-23T11:45:57;94907.50;;;37.23;18.91
6464;BME280;3265;42.694;23.282;2022-07-23T11:48:26;94900.94;;;37.34;18.28
6464;BME280;3265;42.694;23.282;2022-07-23T11:50:57;94908.38;;;37.55;18.00
6464;BME280;3265;42.694;23.282;2022-07-23T11:53:29;94910.78;;;37.74;16.25
6464;BME280;3265;42.694;23.282;2022-07-23T11:56:04;94906.13;;;37.82;16.64
6464;BME280;3265;42.694;23.282;2022-07-23T11:58:32;94909.63;;;37.82;14.99
6464;BME280;3265;42.694;23.282;2022-07-23T12:00:59;94911.91;;;37.70;16.04
6464;BME280;3265;42.694;23.282;2022-07-23T12:03:26;94899.88;;;37.53;15.94
6464;BME280;3265;42.694;23.282;2022-07-23T12:05:56;94904.56;;;37.63;17.41
6464;BME280;3265;42.694;23.282;2022-07-23T12:08:23;94892.94;;;37.66;16.53
6464;BME280;3265;42.694;23.282;2022-07-23T12:10:50;94899.88;;;37.64;18.33
6464;BME280;3265;42.694;23.282;2022-07-23T12:13:20;94889.84;;;37.75;18.45
6464;BME280;3265;42.694;23.282;2022-07-23T12:15:50;94889.47;;;37.83;17.52
6464;BME280;3265;42.694;23.282;2022-07-23T12:18:20;94883.63;;;37.81;17.28
6464;BME280;3265;42.694;23.282;2022-07-23T12:20:49;94886.34;;;37.81;16.10
6464;BME280;3265;42.694;23.282;2022-07-23T12:23:18;94882.09;;;37.87;16.80
6464;BME280;3265;42.694;23.282;2022-07-23T12:25:48;94884.06;;;37.97;17.91
6464;BME280;3265;42.694;23.282;2022-07-23T12:28:19;94887.97;;;38.18;17.06
6464;BME280;3265;42.694;23.282;2022-07-23T12:30:48;94886.44;;;38.34;16.68
6464;BME280;3265;42.694;23.282;2022-07-23T12:33:21;94883.72;;;38.41;16.88
6464;BME280;3265;42.694;23.282;2022-07-23T12:35:50;94882.13;;;38.47;16.21
6464;BME280;3265;42.694;23.282;2022-07-23T12:38:21;94882.91;;;38.23;15.21
6464;BME280;3265;42.694;23.282;2022-07-23T12:40:50;94866.63;;;38.13;16.13
6464;BME280;3265;42.694;23.282;2022-07-23T12:43:21;94866.63;;;38.41;17.10
6464;BME280;3265;42.694;23.282;2022-07-23T12:45:50;94873.97;;;38.58;17.26
6464;BME280;3265;42.694;23.282;2022-07-23T12:48:19;94866.97;;;38.64;16.37
6464;BME280;3265;42.694;23.282;2022-07-23T12:50:54;94870.84;;;38.59;16.67
6464;BME280;3265;42.694;23.282;2022-07-23T12:53:23;94865.03;;;38.54;16.57
6464;BME280;3265;42.694;23.282;2022-07-23T12:55:56;94857.28;;;38.49;16.86
6464;BME280;3265;42.694;23.282;2022-07-23T12:58:25;94860.72;;;38.71;15.74
6464;BME280;3265;42.694;23.282;2022-07-23T13:00:54;94853.34;;;38.75;16.79
6464;BME280;3265;42.694;23.282;2022-07-23T13:03:22;94850.25;;;38.80;15.90
6464;BME280;3265;42.694;23.282;2022-07-23T13:05:49;94860.63;;;39.09;16.03
6464;BME280;3265;42.694;23.282;2022-07-23T13:08:16;94850.13;;;39.11;16.12
6464;BME280;3265;42.694;23.282;2022-07-23T13:10:43;94856.34;;;39.15;16.90
6464;BME280;3265;42.694;23.282;2022-07-23T13:13:13;94840.09;;;38.98;16.31
6464;BME280;3265;42.694;23.282;2022-07-23T13:15:41;94862.28;;;38.72;15.97
6464;BME280;3265;42.694;23.282;2022-07-23T13:18:08;94848.31;;;38.66;16.55